Time;durP1;ratioP1;P1;durP2;ratioP2;P2;SDS_P1;SDS_P2;PMS_P1;PMS_P2;Temp;Humidity;BMP_temperature;BMP_pressure;BME280_temperature;BME280_humidity;BME280_pressure;Samples;Min_cycle;Max_cycle;Signal;HPM_P1;HPM_P2
2023/10/12 00:02:08;;;;;;;10.65;7.95;;;17.80;99.90;;;;;;5055798;28;20680;-63
2023/10/12 00:04:43;;;;;;;9.98;7.32;;;17.80;99.90;;;;;;5055850;28;20233;-63
2023/10/12 00:07:16;;;;;;;11.55;7.70;;;17.70;99.90;;;;;;5056056;28;20184;-63
2023/10/12 00:10:09;;;;;;;13.13;7.97;;;17.60;99.90;;;;;;5055935;28;20258;-62
2023/10/12 00:12:37;;;;;;;10.75;8.48;;;17.60;99.90;;;;;;5055725;28;20191;-62
2023/10/12 00:15:16;;;;;;;9.82;8.32;;;17.70;99.90;;;;;;5055716;28;20175;-63
2023/10/12 00:17:42;;;;;;;11.23;8.30;;;17.60;99.90;;;;;;5055723;28;20186;-63
2023/10/12 00:20:11;;;;;;;11.18;8.40;;;17.50;99.90;;;;;;5055640;28;20231;-63
2023/10/12 00:22:37;;;;;;;10.07;8.55;;;17.50;99.90;;;;;;5055411;28;20207;-63
2023/10/12 00:25:04;;;;;;;11.95;9.35;;;17.40;99.90;;;;;;5054254;28;20175;-63
2023/10/12 00:27:30;;;;;;;9.73;8.70;;;17.40;99.90;;;;;;5054604;28;20207;-63
2023/10/12 00:29:55;;;;;;;14.63;9.10;;;17.40;99.90;;;;;;5055713;28;20272;-63
2023/10/12 00:32:21;;;;;;;13.45;9.63;;;17.30;99.90;;;;;;5055429;28;20267;-63
2023/10/12 00:34:47;;;;;;;12.52;9.00;;;17.40;99.90;;;;;;5055404;28;20698;-63
2023/10/12 00:37:14;;;;;;;12.70;9.90;;;17.40;99.90;;;;;;5055252;28;20183;-63
2023/10/12 00:42:18;;;;;;;12.38;9.50;;;17.30;99.90;;;;;;5055280;28;20627;-62
2023/10/12 00:44:49;;;;;;;11.50;9.10;;;17.30;99.90;;;;;;5055295;28;20172;-63
2023/10/12 00:50:07;;;;;;;18.08;11.18;;;17.20;99.90;;;;;;5055056;28;20213;-63
2023/10/12 00:52:46;;;;;;;12.27;9.85;;;17.30;99.90;;;;;;5054972;28;20183;-63
2023/10/12 00:55:21;;;;;;;14.48;10.50;;;17.20;99.90;;;;;;5054991;28;20183;-62
2023/10/12 00:57:50;;;;;;;14.30;10.63;;;17.20;99.90;;;;;;5055110;28;20202;-63
2023/10/12 01:00:18;;;;;;;16.35;10.07;;;17.20;99.90;;;;;;5053764;28;20604;-63
2023/10/12 01:03:06;;;;;;;14.55;11.35;;;17.20;99.90;;;;;;5054655;28;20199;-63
2023/10/12 01:05:35;;;;;;;13.95;11.18;;;17.20;99.90;;;;;;5054806;28;20180;-62
2023/10/12 01:08:04;;;;;;;17.35;10.70;;;17.20;99.90;;;;;;5054870;28;20241;-63
2023/10/12 01:10:32;;;;;;;15.35;11.82;;;17.10;99.90;;;;;;5054692;28;20175;-62
2023/10/12 01:13:00;;;;;;;14.63;11.68;;;17.10;99.90;;;;;;5054456;28;20238;-63
2023/10/12 01:15:29;;;;;;;13.23;10.68;;;17.10;99.90;;;;;;5054350;28;20223;-63
2023/10/12 01:17:56;;;;;;;14.65;11.38;;;17.10;99.90;;;;;;5054358;28;20579;-63
2023/10/12 01:20:26;;;;;;;15.32;11.23;;;17.10;99.90;;;;;;5054357;28;20318;-63
2023/10/12 01:22:52;;;;;;;15.25;11.02;;;17.00;99.90;;;;;;5054351;28;20596;-63
2023/10/12 01:25:30;;;;;;;13.50;11.57;;;17.00;99.90;;;;;;5054293;28;20659;-63
2023/10/12 01:27:56;;;;;;;17.85;12.25;;;17.00;99.90;;;;;;5054306;28;20640;-63
2023/10/12 01:30:22;;;;;;;14.38;11.35;;;17.00;99.90;;;;;;5054382;28;20171;-63
2023/10/12 01:32:57;;;;;;;16.45;11.95;;;17.00;99.90;;;;;;5054243;28;20183;-63
2023/10/12 01:35:39;;;;;;;14.35;11.68;;;16.90;99.90;;;;;;5054218;28;20183;-63
2023/10/12 01:38:08;;;;;;;14.65;11.07;;;17.00;99.90;;;;;;5051923;28;20175;-62
2023/10/12 01:43:12;;;;;;;15.82;12.30;;;17.00;99.90;;;;;;5054099;28;20238;-63
2023/10/12 01:45:41;;;;;;;14.07;11.43;;;16.90;99.90;;;;;;5054004;28;20276;-63
2023/10/12 01:48:10;;;;;;;13.70;11.32;;;17.00;99.90;;;;;;5053862;28;20179;-63
2023/10/12 01:50:39;;;;;;;15.30;11.20;;;17.00;99.90;;;;;;5053866;28;20175;-63
2023/10/12 01:55:51;;;;;;;15.02;10.98;;;17.00;99.90;;;;;;5053958;28;20180;-63
2023/10/12 01:58:18;;;;;;;15.70;10.85;;;17.00;99.90;;;;;;5053838;28;20171;-62
2023/10/12 02:00:51;;;;;;;13.35;10.93;;;17.00;99.90;;;;;;5053754;28;20201;-63
2023/10/12 02:03:31;;;;;;;13.90;11.27;;;17.10;99.90;;;;;;5053497;28;20218;-63
2023/10/12 02:06:00;;;;;;;12.95;10.32;;;17.10;99.90;;;;;;5053709;28;20658;-63
2023/10/12 02:08:32;;;;;;;13.52;10.85;;;17.10;99.90;;;;;;5053696;28;20202;-63
2023/10/12 02:11:25;;;;;;;13.65;10.85;;;17.00;99.90;;;;;;5053501;28;20540;-63
2023/10/12 02:13:54;;;;;;;11.68;10.50;;;17.00;99.90;;;;;;5053432;28;20186;-63
2023/10/12 02:16:38;;;;;;;12.13;10.73;;;17.00;99.90;;;;;;5052361;28;20528;-63
2023/10/12 02:19:08;;;;;;;14.13;10.88;;;17.00;99.90;;;;;;5053465;28;20179;-63
2023/10/12 02:21:37;;;;;;;18.23;11.68;;;16.90;99.90;;;;;;5053320;28;20219;-63
2023/10/12 02:26:37;;;;;;;13.40;11.90;;;16.90;99.90;;;;;;5052401;28;20179;-63
2023/10/12 02:34:41;;;;;;;13.35;10.32;;;16.90;99.90;;;;;;5053319;28;20195;-63
2023/10/12 02:37:16;;;;;;;12.45;11.02;;;16.90;99.90;;;;;;5053339;28;20202;-63
2023/10/12 02:39:43;;;;;;;12.43;10.43;;;16.90;99.90;;;;;;5053241;28;20190;-63
2023/10/12 02:42:16;;;;;;;12.65;10.45;;;17.00;99.90;;;;;;5053153;28;20202;-63
2023/10/12 02:47:22;;;;;;;11.75;9.98;;;16.90;99.90;;;;;;5053088;28;20209;-63
2023/10/12 02:49:48;;;;;;;13.20;10.85;;;16.90;99.90;;;;;;5054569;28;20172;-63
2023/10/12 02:52:15;;;;;;;13.70;10.93;;;16.90;99.90;;;;;;5057312;28;20175;-63
2023/10/12 02:54:51;;;;;;;15.32;10.90;;;16.90;99.90;;;;;;5057225;28;20202;-62
2023/10/12 02:57:31;;;;;;;14.93;12.23;;;16.90;99.90;;;;;;5057201;28;20181;-63
2023/10/12 02:59:58;;;;;;;11.90;10.32;;;16.80;99.90;;;;;;5057308;28;20206;-63
2023/10/12 03:02:32;;;;;;;14.85;11.75;;;16.80;99.90;;;;;;5057102;28;20289;-63
2023/10/12 03:05:00;;;;;;;12.10;10.77;;;16.70;99.90;;;;;;5057048;28;20184;-63
2023/10/12 03:07:26;;;;;;;13.48;10.40;;;16.70;99.90;;;;;;5057246;28;20171;-63
2023/10/12 03:09:56;;;;;;;14.02;10.65;;;16.70;99.90;;;;;;5056834;28;20718;-62
2023/10/12 03:12:23;;;;;;;13.10;10.68;;;16.80;99.90;;;;;;5057081;28;20175;-63
2023/10/12 03:14:52;;;;;;;15.23;11.18;;;16.80;99.90;;;;;;5056982;28;20172;-63
2023/10/12 03:17:19;;;;;;;16.55;11.27;;;16.70;99.90;;;;;;5056896;28;20175;-65
2023/10/12 03:19:55;;;;;;;18.25;10.70;;;16.70;99.90;;;;;;5056527;28;20738;-63
2023/10/12 03:22:34;;;;;;;14.73;11.15;;;16.60;99.90;;;;;;5056639;28;20199;-63
2023/10/12 03:25:19;;;;;;;18.02;11.27;;;16.60;99.90;;;;;;5056775;28;20183;-63
2023/10/12 03:27:52;;;;;;;14.10;10.90;;;16.70;99.90;;;;;;5056708;28;20528;-64
2023/10/12 03:30:24;;;;;;;14.13;11.82;;;16.60;99.90;;;;;;5056530;28;20174;-63
2023/10/12 03:32:50;;;;;;;15.10;11.52;;;16.50;99.90;;;;;;5056487;28;20183;-62
2023/10/12 03:35:26;;;;;;;15.30;11.38;;;16.50;99.90;;;;;;5056313;28;20213;-63
2023/10/12 03:38:00;;;;;;;12.80;10.98;;;16.40;99.90;;;;;;5056536;28;20266;-63
2023/10/12 03:43:26;;;;;;;15.70;11.50;;;16.40;99.90;;;;;;5056279;28;20306;-64
2023/10/12 03:48:47;;;;;;;13.32;10.55;;;16.50;99.90;;;;;;5056401;28;20187;-63
2023/10/12 03:51:25;;;;;;;13.55;10.77;;;16.40;99.90;;;;;;5056016;28;20183;-63
2023/10/12 03:53:56;;;;;;;13.00;10.52;;;16.40;99.90;;;;;;5056011;28;20179;-63
2023/10/12 03:56:36;;;;;;;12.88;10.30;;;16.40;99.90;;;;;;5056340;28;20172;-63
2023/10/12 03:59:06;;;;;;;12.68;10.95;;;16.40;99.90;;;;;;5056090;28;20229;-63
2023/10/12 04:01:34;;;;;;;14.20;10.63;;;16.40;99.90;;;;;;5054726;28;20207;-63
2023/10/12 04:04:10;;;;;;;13.07;10.48;;;16.50;99.90;;;;;;5056363;28;20179;-63
2023/10/12 04:09:31;;;;;;;11.77;9.13;;;16.50;99.90;;;;;;5056002;28;20252;-63
2023/10/12 04:14:52;;;;;;;12.60;9.38;;;16.40;99.90;;;;;;5055629;28;20194;-63
2023/10/12 04:28:03;;;;;;;13.23;9.95;;;16.30;99.90;;;;;;5055396;28;20310;-62
2023/10/12 04:30:33;;;;;;;13.30;10.95;;;16.30;99.90;;;;;;5055365;28;20637;-64
2023/10/12 04:38:23;;;;;;;12.80;10.85;;;16.30;99.90;;;;;;5055444;28;20190;-64
2023/10/12 04:43:39;;;;;;;12.80;11.05;;;16.40;99.90;;;;;;5055190;28;20218;-63
2023/10/12 04:46:26;;;;;;;16.60;11.27;;;16.30;99.90;;;;;;5054962;28;20643;-63
2023/10/12 04:49:12;;;;;;;13.55;11.27;;;16.40;99.90;;;;;;5054201;28;20191;-64
2023/10/12 04:51:40;;;;;;;15.15;11.55;;;16.30;99.90;;;;;;5055135;28;20211;-63
2023/10/12 04:54:23;;;;;;;12.32;11.02;;;16.30;99.90;;;;;;5054914;28;20216;-63
2023/10/12 04:59:50;;;;;;;13.25;11.15;;;16.30;99.90;;;;;;5055041;28;20236;-65
2023/10/12 05:02:28;;;;;;;15.75;11.85;;;16.30;99.90;;;;;;5054585;28;20207;-64
2023/10/12 05:07:27;;;;;;;19.83;12.90;;;16.30;99.90;;;;;;5054672;28;20187;-64
2023/10/12 05:09:53;;;;;;;12.98;11.40;;;16.30;99.90;;;;;;5054836;28;20179;-65
2023/10/12 05:12:20;;;;;;;13.57;11.85;;;16.30;99.90;;;;;;5054454;28;20175;-65
2023/10/12 05:14:47;;;;;;;15.07;11.65;;;16.20;99.90;;;;;;5054520;28;20182;-65
2023/10/12 05:17:12;;;;;;;15.27;11.85;;;16.20;99.90;;;;;;5054487;28;20592;-65
2023/10/12 05:19:41;;;;;;;17.27;11.70;;;16.20;99.90;;;;;;5054178;28;20231;-65
2023/10/12 05:22:06;;;;;;;12.73;10.85;;;16.20;99.90;;;;;;5054447;28;20218;-65
2023/10/12 05:24:32;;;;;;;13.90;11.55;;;16.20;99.90;;;;;;5054410;28;20269;-65
2023/10/12 05:27:09;;;;;;;14.38;11.30;;;16.30;99.90;;;;;;5054509;28;20716;-65
2023/10/12 05:29:46;;;;;;;14.00;11.65;;;16.20;99.90;;;;;;5054304;28;20544;-65
2023/10/12 05:39:46;;;;;;;19.73;12.85;;;16.40;99.90;;;;;;5054158;28;20232;-65
2023/10/12 05:42:15;;;;;;;15.68;11.77;;;16.30;99.90;;;;;;5053925;28;20591;-65
2023/10/12 05:44:44;;;;;;;14.25;11.77;;;16.30;99.90;;;;;;5054181;28;20175;-65
2023/10/12 05:47:13;;;;;;;17.73;12.25;;;16.20;99.90;;;;;;5054037;28;20173;-65
2023/10/12 05:49:40;;;;;;;16.30;12.15;;;16.20;99.90;;;;;;5054000;28;20179;-65
2023/10/12 05:52:09;;;;;;;15.68;12.07;;;16.30;99.90;;;;;;5053912;28;20172;-65
2023/10/12 05:54:39;;;;;;;17.00;12.43;;;16.30;99.90;;;;;;5053724;28;20178;-65
2023/10/12 05:57:17;;;;;;;13.48;11.90;;;16.40;99.90;;;;;;5053679;28;20541;-64
2023/10/12 05:59:43;;;;;;;14.38;11.55;;;16.40;99.90;;;;;;5053720;28;20568;-65
2023/10/12 06:02:10;;;;;;;15.43;12.35;;;16.40;99.90;;;;;;5053651;28;20207;-65
2023/10/12 06:04:36;;;;;;;15.90;12.30;;;16.30;99.90;;;;;;5053671;28;20179;-65
2023/10/12 06:07:02;;;;;;;14.63;11.85;;;16.30;99.90;;;;;;5053561;28;20536;-65
2023/10/12 06:09:35;;;;;;;16.63;12.20;;;16.40;99.90;;;;;;5053511;28;20266;-65
2023/10/12 06:12:13;;;;;;;15.25;12.40;;;16.40;99.90;;;;;;5053652;28;20179;-66
2023/10/12 06:14:39;;;;;;;16.48;12.70;;;16.40;99.90;;;;;;5053804;28;20179;-66
2023/10/12 06:17:06;;;;;;;15.50;11.38;;;16.40;99.90;;;;;;5053523;28;20244;-65
2023/10/12 06:19:35;;;;;;;14.55;12.15;;;16.40;99.90;;;;;;5053143;28;20595;-65
2023/10/12 06:22:32;;;;;;;15.35;11.23;;;16.40;99.90;;;;;;5053263;28;20211;-65
2023/10/12 06:24:59;;;;;;;14.68;12.70;;;16.50;99.90;;;;;;5052843;28;20266;-65
2023/10/12 06:27:25;;;;;;;15.75;12.23;;;16.30;99.90;;;;;;5053392;28;20222;-65
2023/10/12 06:29:53;;;;;;;15.45;12.02;;;16.40;99.90;;;;;;5053271;28;20539;-66
2023/10/12 06:32:19;;;;;;;18.13;13.20;;;16.40;99.90;;;;;;5053108;28;20198;-65
2023/10/12 06:35:02;;;;;;;15.40;11.80;;;16.40;99.90;;;;;;5053368;28;20211;-65
2023/10/12 06:40:37;;;;;;;15.63;12.45;;;16.40;99.90;;;;;;5053421;28;20301;-67
2023/10/12 06:45:54;;;;;;;13.57;11.07;;;16.40;99.90;;;;;;5053312;28;20193;-66
2023/10/12 06:51:02;;;;;;;12.88;11.57;;;16.50;99.90;;;;;;5053191;28;20189;-65
2023/10/12 06:53:35;;;;;;;12.75;10.68;;;16.50;99.90;;;;;;5053087;28;20209;-66
2023/10/12 06:56:50;;;;;;;12.70;11.40;;;16.50;99.90;;;;;;5053286;28;20532;-65
2023/10/12 07:01:51;;;;;;;14.70;10.95;;;16.40;99.90;;;;;;5053161;28;20217;-65
2023/10/12 07:04:26;;;;;;;13.77;11.38;;;16.40;99.90;;;;;;5052823;28;20262;-63
2023/10/12 07:07:07;;;;;;;12.43;10.77;;;16.40;99.90;;;;;;5053043;28;20537;-66
2023/10/12 07:09:39;;;;;;;14.02;11.35;;;16.40;99.90;;;;;;5053097;28;20266;-65
2023/10/12 07:12:10;;;;;;;15.20;11.38;;;16.40;99.90;;;;;;5052775;28;20189;-64
2023/10/12 07:17:34;;;;;;;14.18;10.25;;;16.40;99.90;;;;;;5051536;28;20270;-66
2023/10/12 07:20:01;;;;;;;14.18;10.60;;;16.40;99.90;;;;;;5052550;28;20253;-65
2023/10/12 07:22:26;;;;;;;15.88;11.23;;;16.50;99.90;;;;;;5052596;28;20260;-65
2023/10/12 07:24:53;;;;;;;14.60;10.40;;;16.50;99.90;;;;;;5052919;28;20179;-65
2023/10/12 07:27:19;;;;;;;13.02;10.20;;;16.50;99.90;;;;;;5052863;28;20266;-64
2023/10/12 07:29:47;;;;;;;14.23;11.13;;;16.50;99.90;;;;;;5052744;28;20179;-67
2023/10/12 07:35:05;;;;;;;13.30;10.63;;;16.60;99.90;;;;;;5052949;28;20186;-67
2023/10/12 07:37:31;;;;;;;15.07;10.63;;;16.50;99.90;;;;;;5056684;28;20556;-66
2023/10/12 07:40:12;;;;;;;17.00;10.80;;;16.60;99.90;;;;;;5056490;28;20172;-67
2023/10/12 07:42:40;;;;;;;16.73;10.93;;;16.60;99.90;;;;;;5056401;28;20238;-66
2023/10/12 07:45:06;;;;;;;15.02;10.95;;;16.60;99.90;;;;;;5056266;28;20624;-66
2023/10/12 07:47:32;;;;;;;16.65;10.98;;;16.70;99.90;;;;;;5056145;28;20194;-67
2023/10/12 07:50:07;;;;;;;14.05;10.18;;;16.60;99.90;;;;;;5056306;28;20179;-66
2023/10/12 07:52:38;;;;;;;12.00;9.98;;;16.60;99.90;;;;;;5056300;28;20186;-66
2023/10/12 07:55:12;;;;;;;12.10;9.25;;;16.70;99.90;;;;;;5056275;28;20193;-65
2023/10/12 07:57:41;;;;;;;13.63;9.35;;;16.70;99.90;;;;;;5056080;28;20182;-66
2023/10/12 08:00:34;;;;;;;13.25;10.63;;;16.70;99.90;;;;;;5055895;28;20213;-67
2023/10/12 08:05:43;;;;;;;11.43;10.18;;;16.80;99.90;;;;;;5056121;28;20179;-65
2023/10/12 08:08:17;;;;;;;14.18;9.32;;;16.70;99.90;;;;;;5055938;28;20547;-65
2023/10/12 08:13:26;;;;;;;11.38;10.18;;;16.80;99.90;;;;;;5055841;28;20175;-67
2023/10/12 08:24:22;;;;;;;13.18;10.10;;;16.80;99.90;;;;;;5054816;28;20230;-65
2023/10/12 08:26:48;;;;;;;13.80;9.95;;;16.90;99.90;;;;;;5055548;28;20547;-66
2023/10/12 08:31:48;;;;;;;14.27;9.80;;;16.90;99.90;;;;;;5055632;28;20206;-66
2023/10/12 08:39:39;;;;;;;10.60;9.48;;;16.90;99.90;;;;;;5055400;28;20190;-65
2023/10/12 08:43:09;;;;;;;9.85;8.85;;;16.90;99.90;;;;;;5055294;28;20214;-65
2023/10/12 08:45:09;;;;;;;12.25;8.57;;;17.00;99.90;;;;;;5054511;28;20648;-66
2023/10/12 08:50:08;;;;;;;10.20;8.48;;;17.00;99.90;;;;;;5054927;28;20186;-66
2023/10/12 08:52:40;;;;;;;11.02;8.63;;;17.10;99.90;;;;;;5055112;28;20174;-65
2023/10/12 08:55:19;;;;;;;10.18;9.07;;;17.00;99.90;;;;;;5055392;28;20172;-65
2023/10/12 08:58:11;;;;;;;12.32;8.27;;;17.10;99.90;;;;;;5055268;28;20171;-66
2023/10/12 09:00:40;;;;;;;13.07;8.60;;;17.10;99.90;;;;;;5054723;28;20171;-66
2023/10/12 09:03:14;;;;;;;10.23;8.40;;;17.10;99.90;;;;;;5054805;28;20219;-65
2023/10/12 09:05:40;;;;;;;11.82;8.85;;;17.20;99.90;;;;;;5055010;28;20240;-66
2023/10/12 09:13:29;;;;;;;10.65;8.30;;;17.20;99.90;;;;;;5054640;28;20536;-66
2023/10/12 09:15:57;;;;;;;11.07;8.77;;;17.30;99.90;;;;;;5054745;28;20175;-66
2023/10/12 09:18:26;;;;;;;10.32;8.82;;;17.30;99.90;;;;;;5054436;28;20210;-66
2023/10/12 09:23:52;;;;;;;11.70;8.95;;;17.30;99.90;;;;;;5054381;28;20207;-65
2023/10/12 09:26:38;;;;;;;10.85;8.90;;;17.30;99.90;;;;;;5054401;28;20214;-65
2023/10/12 09:29:12;;;;;;;13.63;8.93;;;17.30;99.90;;;;;;5054392;28;20536;-66
2023/10/12 09:36:53;;;;;;;13.07;8.80;;;17.10;99.90;;;;;;5054414;28;20222;-65
2023/10/12 09:39:28;;;;;;;14.05;8.60;;;17.10;99.90;;;;;;5054290;28;20702;-65
2023/10/12 09:42:09;;;;;;;10.98;8.32;;;17.10;99.90;;;;;;5054126;28;20238;-65
2023/10/12 09:44:39;;;;;;;11.68;8.70;;;17.10;99.90;;;;;;5054163;28;20183;-66
2023/10/12 09:47:09;;;;;;;11.13;8.63;;;16.90;99.90;;;;;;5054101;28;20636;-65
2023/10/12 09:49:42;;;;;;;12.38;8.65;;;17.00;99.90;;;;;;5054086;28;20183;-65
2023/10/12 09:52:13;;;;;;;13.20;8.75;;;16.90;99.90;;;;;;5053940;28;20632;-65
2023/10/12 09:54:55;;;;;;;9.85;8.27;;;16.90;99.90;;;;;;5053819;28;20539;-65
2023/10/12 09:57:25;;;;;;;11.20;8.20;;;16.90;99.90;;;;;;5053910;28;20172;-65
2023/10/12 10:00:00;;;;;;;12.38;8.75;;;16.90;99.90;;;;;;5052979;28;20262;-66
2023/10/12 10:02:34;;;;;;;10.32;8.73;;;16.90;99.90;;;;;;5053999;28;20241;-65
2023/10/12 10:07:53;;;;;;;12.85;9.60;;;17.00;99.90;;;;;;5053780;28;20244;-65
2023/10/12 10:10:34;;;;;;;10.70;8.52;;;17.10;99.90;;;;;;5053666;28;20531;-65
2023/10/12 10:13:03;;;;;;;10.45;8.43;;;17.20;99.90;;;;;;5053703;28;20179;-65
2023/10/12 10:15:42;;;;;;;9.95;7.88;;;17.40;99.90;;;;;;5053553;28;20172;-65
2023/10/12 10:18:15;;;;;;;11.15;8.85;;;17.50;99.90;;;;;;5053583;28;20171;-65
2023/10/12 10:20:48;;;;;;;11.52;8.50;;;17.60;99.90;;;;;;5053257;28;20630;-65
2023/10/12 10:23:19;;;;;;;12.25;9.43;;;17.70;99.90;;;;;;5053330;28;20211;-66
2023/10/12 10:26:16;;;;;;;15.07;9.15;;;17.60;99.90;;;;;;5053474;28;20179;-65
2023/10/12 10:28:58;;;;;;;9.82;8.20;;;17.80;99.90;;;;;;5053214;28;20687;-65
2023/10/12 10:31:31;;;;;;;12.88;8.77;;;18.00;99.90;;;;;;5053328;28;20187;-66
2023/10/12 10:34:01;;;;;;;12.82;8.55;;;18.20;99.90;;;;;;5053195;28;20623;-66
2023/10/12 10:36:34;;;;;;;12.43;8.55;;;18.30;99.90;;;;;;5053073;28;20183;-65
2023/10/12 10:39:28;;;;;;;14.00;8.23;;;18.40;99.90;;;;;;5053456;28;20175;-66
2023/10/12 10:44:22;;;;;;;13.18;8.82;;;18.10;99.90;;;;;;5053164;28;20183;-66
2023/10/12 10:46:57;;;;;;;10.75;8.13;;;18.10;99.90;;;;;;5053081;28;20174;-66
2023/10/12 10:49:30;;;;;;;11.55;7.85;;;18.00;99.90;;;;;;5053286;28;20171;-66
2023/10/12 10:54:33;;;;;;;11.93;8.07;;;17.80;99.90;;;;;;5053156;28;20690;-66
2023/10/12 10:57:04;;;;;;;8.80;7.80;;;17.80;99.90;;;;;;5053134;28;20187;-65
2023/10/12 10:59:31;;;;;;;12.93;8.25;;;17.80;99.90;;;;;;5052899;28;20262;-65
2023/10/12 11:01:59;;;;;;;10.02;7.90;;;17.80;99.90;;;;;;5053034;28;20264;-65
2023/10/12 11:04:41;;;;;;;9.88;8.02;;;17.80;99.90;;;;;;5053179;28;20179;-66
2023/10/12 11:07:15;;;;;;;13.77;8.00;;;17.70;99.90;;;;;;5052949;28;20210;-65
2023/10/12 11:12:17;;;;;;;11.73;8.32;;;17.60;99.90;;;;;;5056877;28;20183;-65
2023/10/12 11:14:52;;;;;;;11.93;8.15;;;17.50;99.90;;;;;;5056911;28;20178;-66
2023/10/12 11:17:21;;;;;;;12.70;9.00;;;17.50;99.90;;;;;;5057003;28;20215;-66
2023/10/12 11:19:49;;;;;;;10.60;8.35;;;17.40;99.90;;;;;;5056630;28;20706;-65
2023/10/12 11:22:16;;;;;;;10.75;8.85;;;17.40;99.90;;;;;;5056480;28;20211;-65
2023/10/12 11:24:49;;;;;;;11.90;8.90;;;17.40;99.90;;;;;;5056505;28;20271;-65
2023/10/12 11:27:32;;;;;;;11.68;8.88;;;17.40;99.90;;;;;;5056870;28;20175;-66
2023/10/12 11:30:07;;;;;;;13.13;9.15;;;17.50;99.90;;;;;;5056599;28;20163;-67
2023/10/12 11:32:53;;;;;;;9.77;8.52;;;17.50;99.90;;;;;;5056559;28;20179;-65
2023/10/12 11:35:45;;;;;;;12.90;10.10;;;17.60;99.90;;;;;;5056472;28;20171;-65
2023/10/12 11:38:20;;;;;;;16.52;10.02;;;17.50;99.90;;;;;;5056348;28;20206;-65
2023/10/12 11:40:52;;;;;;;12.00;9.45;;;17.70;99.90;;;;;;5056482;28;20249;-65
2023/10/12 11:43:25;;;;;;;10.82;9.07;;;17.60;99.90;;;;;;5056178;28;20764;-67
2023/10/12 11:46:01;;;;;;;11.93;8.98;;;17.50;99.90;;;;;;5056591;28;20180;-66
2023/10/12 11:48:28;;;;;;;11.38;9.05;;;17.50;99.90;;;;;;5056165;28;20175;-65
2023/10/12 11:50:55;;;;;;;12.65;10.07;;;17.50;99.90;;;;;;5056209;28;20265;-65
2023/10/12 11:53:21;;;;;;;11.40;8.73;;;17.50;99.90;;;;;;5056119;28;20179;-65
2023/10/12 11:55:49;;;;;;;11.27;8.82;;;17.50;99.90;;;;;;5056042;28;20172;-67
2023/10/12 11:58:19;;;;;;;12.02;9.13;;;17.40;99.90;;;;;;5056331;28;20176;-66
2023/10/12 12:00:48;;;;;;;10.82;8.98;;;17.40;99.90;;;;;;5055956;28;20218;-65
2023/10/12 12:03:15;;;;;;;11.38;9.20;;;17.50;99.90;;;;;;5055907;28;20211;-65
2023/10/12 12:05:50;;;;;;;10.18;9.07;;;17.50;99.90;;;;;;5056030;28;20266;-65
2023/10/12 12:08:18;;;;;;;10.13;9.07;;;17.50;99.90;;;;;;5055790;28;20197;-66
2023/10/12 12:10:45;;;;;;;14.05;9.70;;;17.50;99.90;;;;;;5055998;28;20266;-65
2023/10/12 12:13:12;;;;;;;12.88;9.75;;;17.50;99.90;;;;;;5055934;28;20528;-65
2023/10/12 12:15:43;;;;;;;12.60;9.38;;;17.50;99.90;;;;;;5056194;28;20198;-65
2023/10/12 12:18:19;;;;;;;11.98;9.90;;;17.40;99.90;;;;;;5055675;28;20175;-65
2023/10/12 12:20:56;;;;;;;11.05;9.60;;;17.50;99.90;;;;;;5055271;28;20325;-65
2023/10/12 12:23:33;;;;;;;11.95;8.90;;;17.40;99.90;;;;;;5054735;28;20207;-66
2023/10/12 12:26:07;;;;;;;12.63;9.75;;;17.50;99.90;;;;;;5055552;28;20616;-65
2023/10/12 12:28:43;;;;;;;12.73;9.32;;;17.40;99.90;;;;;;5055536;28;20167;-65
2023/10/12 12:31:13;;;;;;;10.75;9.65;;;17.40;99.90;;;;;;5055283;28;20179;-65
2023/10/12 12:33:43;;;;;;;11.30;9.65;;;17.50;99.90;;;;;;5055548;28;20201;-66
2023/10/12 12:36:21;;;;;;;14.10;10.00;;;17.50;99.90;;;;;;5055651;28;20690;-66
2023/10/12 12:41:25;;;;;;;11.00;9.52;;;17.60;99.90;;;;;;5055389;28;20525;-66
2023/10/12 12:43:52;;;;;;;14.13;9.35;;;17.60;99.90;;;;;;5055020;28;20215;-66
2023/10/12 12:46:19;;;;;;;10.30;9.23;;;17.60;99.90;;;;;;5055044;28;20532;-65
2023/10/12 12:48:48;;;;;;;12.13;9.50;;;17.70;99.90;;;;;;5055234;28;20171;-65
2023/10/12 12:51:15;;;;;;;11.90;9.73;;;17.70;99.90;;;;;;5055156;28;20180;-66
2023/10/12 12:53:46;;;;;;;11.63;9.50;;;17.70;99.90;;;;;;5054894;28;20202;-65
2023/10/12 12:56:19;;;;;;;9.82;8.40;;;17.70;99.90;;;;;;5054695;28;20266;-65
2023/10/12 12:58:47;;;;;;;12.63;8.73;;;17.70;99.90;;;;;;5055093;28;20175;-66
2023/10/12 13:01:14;;;;;;;10.80;8.07;;;17.60;99.90;;;;;;5055041;28;20266;-66
2023/10/12 13:03:40;;;;;;;14.40;9.60;;;17.60;99.90;;;;;;5054765;28;20214;-66
2023/10/12 13:06:09;;;;;;;11.93;8.40;;;17.50;99.90;;;;;;5054894;28;20643;-65
2023/10/12 13:08:37;;;;;;;10.82;8.35;;;17.60;99.90;;;;;;5054628;28;20706;-65
2023/10/12 13:11:06;;;;;;;10.52;8.52;;;17.60;99.90;;;;;;5054550;28;20182;-66
2023/10/12 13:13:33;;;;;;;10.23;8.20;;;17.50;99.90;;;;;;5054484;28;20191;-64
2023/10/12 13:16:05;;;;;;;8.75;7.88;;;17.40;99.90;;;;;;5054629;28;20532;-66
2023/10/12 13:18:34;;;;;;;9.70;7.15;;;17.40;99.90;;;;;;5054809;28;20212;-66
2023/10/12 13:21:00;;;;;;;10.07;8.07;;;17.40;99.90;;;;;;5054366;28;20345;-66
2023/10/12 13:23:26;;;;;;;9.90;8.02;;;17.40;99.90;;;;;;5054204;28;20210;-65
2023/10/12 13:25:52;;;;;;;8.85;7.20;;;17.30;99.90;;;;;;5054471;28;20174;-65
2023/10/12 13:28:18;;;;;;;8.85;7.45;;;17.40;99.90;;;;;;5054671;28;20176;-65
2023/10/12 13:30:45;;;;;;;11.38;7.95;;;17.40;99.90;;;;;;5053134;28;20171;-65
2023/10/12 13:33:13;;;;;;;11.90;8.05;;;17.40;99.90;;;;;;5054117;28;20698;-66
2023/10/12 13:35:42;;;;;;;9.48;7.38;;;17.40;99.90;;;;;;5054173;28;20175;-66
2023/10/12 13:38:09;;;;;;;11.63;8.05;;;17.30;99.90;;;;;;5054064;28;20167;-66
2023/10/12 13:40:38;;;;;;;9.93;7.97;;;17.40;99.90;;;;;;5054260;28;20652;-66
2023/10/12 13:43:22;;;;;;;10.18;7.78;;;17.50;99.90;;;;;;5053903;28;20751;-67
2023/10/12 13:45:50;;;;;;;10.32;8.02;;;17.50;99.90;;;;;;5054059;28;20250;-66
2023/10/12 13:48:27;;;;;;;10.55;7.72;;;17.50;99.90;;;;;;5053901;28;20171;-66
2023/10/12 13:51:04;;;;;;;11.23;7.82;;;17.40;99.90;;;;;;5054144;28;20366;-64
2023/10/12 13:53:36;;;;;;;9.05;7.68;;;17.40;99.90;;;;;;5054052;28;20269;-65
2023/10/12 13:56:04;;;;;;;9.88;7.78;;;17.30;99.90;;;;;;5053881;28;20175;-66
2023/10/12 13:58:33;;;;;;;10.15;9.05;;;17.40;99.90;;;;;;5053826;28;20577;-65
2023/10/12 14:01:01;;;;;;;10.57;8.95;;;17.30;99.90;;;;;;5053868;28;20167;-66
2023/10/12 14:03:38;;;;;;;10.18;8.70;;;17.30;99.90;;;;;;5053731;28;20211;-66
2023/10/12 14:06:06;;;;;;;11.02;9.48;;;17.30;99.90;;;;;;5053786;28;20628;-66
2023/10/12 14:08:35;;;;;;;10.13;8.43;;;17.40;99.90;;;;;;5053647;28;20259;-65
2023/10/12 14:11:04;;;;;;;11.95;8.88;;;17.30;99.90;;;;;;5053551;28;20175;-66
2023/10/12 14:13:31;;;;;;;11.10;8.75;;;17.30;99.90;;;;;;5053389;28;20705;-65
2023/10/12 14:15:57;;;;;;;9.68;8.40;;;17.40;99.90;;;;;;5053557;28;20179;-65
2023/10/12 14:18:22;;;;;;;10.02;8.40;;;17.30;99.90;;;;;;5053457;28;20289;-66
2023/10/12 14:20:51;;;;;;;12.90;9.25;;;17.40;99.90;;;;;;5053300;28;20223;-66
2023/10/12 14:23:17;;;;;;;9.95;8.60;;;17.40;99.90;;;;;;5053252;28;20214;-63
2023/10/12 14:25:50;;;;;;;12.52;10.32;;;17.40;99.90;;;;;;5053325;28;20179;-65
2023/10/12 14:28:17;;;;;;;12.30;10.55;;;17.50;99.90;;;;;;5053501;28;20237;-66
2023/10/12 14:30:50;;;;;;;12.60;11.30;;;17.50;99.90;;;;;;5053481;28;20177;-66
2023/10/12 14:33:18;;;;;;;11.57;10.45;;;17.50;99.90;;;;;;5053360;28;20188;-66
2023/10/12 14:35:45;;;;;;;11.73;10.52;;;17.60;99.90;;;;;;5053281;28;20167;-65
2023/10/12 14:38:14;;;;;;;14.27;10.57;;;17.60;99.90;;;;;;5053194;28;20182;-66
2023/10/12 14:40:42;;;;;;;12.52;11.02;;;17.60;99.90;;;;;;5053089;28;20536;-66
2023/10/12 14:43:12;;;;;;;12.90;10.98;;;17.70;99.90;;;;;;5052941;28;20603;-65
2023/10/12 14:45:43;;;;;;;12.35;10.85;;;17.80;99.90;;;;;;5052694;28;20175;-66
2023/10/12 14:48:10;;;;;;;13.20;10.98;;;17.80;99.90;;;;;;5053169;28;20179;-65
2023/10/12 14:50:49;;;;;;;14.70;11.68;;;17.70;99.90;;;;;;5053168;28;20177;-66
2023/10/12 14:53:21;;;;;;;12.45;11.18;;;17.70;99.90;;;;;;5052993;28;20258;-66
2023/10/12 14:55:51;;;;;;;12.88;11.13;;;17.80;99.90;;;;;;5053205;28;20526;-66
2023/10/12 14:58:17;;;;;;;12.07;10.82;;;17.80;99.90;;;;;;5053019;28;20207;-63
2023/10/12 15:00:45;;;;;;;13.77;12.00;;;17.80;99.90;;;;;;5052918;28;20659;-66
2023/10/12 15:03:15;;;;;;;13.70;12.18;;;17.70;99.90;;;;;;5052908;28;20203;-66
2023/10/12 15:05:42;;;;;;;14.05;11.90;;;17.70;99.90;;;;;;5052901;28;20202;-66
2023/10/12 15:08:08;;;;;;;13.00;11.50;;;17.80;99.90;;;;;;5053129;28;20179;-65